Flight Track Log - Related Links

Times and Time Zones

All times are in EST time to prevent confusion due to time zone crossing. See the PDT4207 flight status page for this flight to view local times or setup timezone preferences in your user account.

Time Position Orientation Groundspeed Altitude Reporting Facility
EST Latitude Longitude Course Direction KTS MPH feet Rate Location/Type
Tue 09:34:06 PM 39.9000 -75.2500 330° Northwest 118 136 600  Level Philadelphia TRACON
Tue 09:35:06 PM 39.9167 -75.2833 303° West 144 166 2,200 1,571 Climbing Philadelphia TRACON
Tue 09:36:00 PM 40.0193 -75.3693 323° Northwest  Level FlightAware Approximate
Tue 09:36:12 PM 39.9167 -75.3333 270° West 146 168 3,900  Level Philadelphia TRACON
Tue 09:37:00 PM 40.0699 -75.4183 339° North  Level FlightAware Approximate
Tue 09:37:12 PM 39.9333 -75.3833 294° West 151 174 5,300  Level Philadelphia TRACON
Tue 09:38:00 PM 40.1170 -75.4670 323° Northwest  Level FlightAware Approximate
Tue 09:38:12 PM 39.9167 -75.4500 252° West 152 175 6,800  Level Philadelphia TRACON
Tue 09:39:00 PM 40.1687 -75.5140 330° Northwest  Level FlightAware Approximate
Tue 09:39:12 PM 39.9167 -75.5000 270° West 147 169 8,300  Level Philadelphia TRACON
Tue 09:40:29 PM 39.9856 -75.4931 North 188 216 9,000 307 Climbing New York Center
Tue 09:41:29 PM 40.0453 -75.5106 347° North 210 242 9,000 50 Level New York Center
Tue 09:42:29 PM 40.0964 -75.5358 339° North 222 255 9,100 500 Climbing New York Center
Tue 09:43:29 PM 40.1567 -75.5453 353° North 207 238 10,000 450 Climbing New York Center
Tue 09:44:29 PM 40.2189 -75.5525 355° North 207 238 10,000  Level New York Center
Tue 09:45:29 PM 40.2564 -75.6011 315° West 194 223 10,000  Level New York Center
Tue 09:46:29 PM 40.2872 -75.6606 304° West 192 221 10,000  Level New York Center
Tue 09:47:29 PM 40.3186 -75.7064 312° West 197 227 10,000  Level New York Center
Tue 09:48:29 PM 40.3539 -75.7633 309° West 197 227 10,000  Level New York Center
Tue 09:49:29 PM 40.3908 -75.8233 309° West 197 227 10,000  Level New York Center
Tue 09:50:29 PM 40.4303 -75.8781 313° West 197 227 10,000  Level New York Center
Tue 09:51:29 PM 40.4653 -75.9325 310° West 197 227 10,000  Level New York Center
Tue 09:52:29 PM 40.4944 -75.9836 307° West 191 220 10,000  Level New York Center
Tue 09:53:29 PM 40.5311 -76.0464 308° West 191 220 10,000  Level New York Center
Tue 09:54:29 PM 40.5683 -76.1042 310° West 196 226 10,000  Level New York Center
Tue 09:55:29 PM 40.6214 -76.1247 344° North 196 226 10,000  Level New York Center
Tue 09:56:29 PM 40.6817 -76.1319 355° North 211 243 10,000 -50 Level New York Center
Tue 09:57:29 PM 40.7414 -76.1478 349° North 216 249 9,900 -50 Descending New York Center
Tue 09:58:29 PM 40.8100 -76.1503 358° North 221 254 9,900  Level New York Center
Tue 09:59:29 PM 40.8700 -76.1606 353° North 221 254 9,900  Level New York Center
Tue 10:00:29 PM 40.9256 -76.1731 350° North 215 247 9,900  Level New York Center
Tue 10:01:29 PM 40.9942 -76.1786 357° North 220 253 9,900  Level New York Center
Tue 10:02:29 PM 41.0561 -76.1889 353° North 220 253 9,900  Level New York Center
Tue 10:03:29 PM 41.1119 -76.1989 352° North 220 253 9,900  Level New York Center
Tue 10:04:29 PM 41.1764 -76.2042 356° North 220 253 9,900 100 Level New York Center
Tue 10:05:29 PM 41.2447 -76.2097 357° North 220 253 10,100 100 Climbing New York Center
Tue 10:06:29 PM 41.3075 -76.2064 North 220 253 10,100  Level New York Center
Tue 10:07:29 PM 41.3725 -76.1950 North 225 259 10,100  Level New York Center
Tue 10:08:29 PM 41.4308 -76.1969 359° North 231 266 10,100  Level New York Center
Tue 10:09:29 PM 41.5039 -76.1892 North 236 272 10,100 -300 Level New York Center
Tue 10:10:29 PM 41.5731 -76.1808 North 241 277 9,500 -500 Descending New York Center
Tue 10:11:29 PM 41.6419 -76.1808 360° North 241 277 9,100 -250 Descending New York Center
Tue 10:12:29 PM 41.7003 -76.1772 North 236 272 9,000 -350 Descending New York Center
Tue 10:13:29 PM 41.7650 -76.1769 360° North 236 272 8,400 -950 Descending New York Center
Tue 10:14:29 PM 41.8403 -76.1692 North 236 272 7,100 -1,100 Descending New York Center
Tue 10:15:29 PM 41.9058 -76.1467 14° North 231 266 6,200 -950 Descending New York Center
Tue 10:16:29 PM 41.9603 -76.0953 35° Northeast 231 266 5,200 -900 Descending New York Center
Tue 10:17:29 PM 42.0103 -76.0461 36° Northeast 241 277 4,400 -800 Descending New York Center
Tue 10:18:29 PM 42.0686 -75.9950 33° Northeast 248 285 3,600 -450 Descending New York Center
Tue 10:19:29 PM 42.1122 -75.9536 35° Northeast 231 266 3,500 -400 Descending New York Center
Tue 10:20:29 PM 42.1528 -75.9317 22° Northeast 183 211 2,800 -700 Descending New York Center
Tue 10:21:29 PM 42.1917 -75.9431 348° North 135 155 2,100 -700 Descending New York Center

Login

Don't have an account? Register now (free) for customized features, flight alerts, and more!